sensor_id;sensor_type;location;lat;lon;timestamp;temperature;humidity
69206;SHT30;56319;48.920;2.332;2023-05-07T00:00:10;22.44;51.30
69206;SHT30;56319;48.920;2.332;2023-05-07T00:02:36;22.48;51.32
69206;SHT30;56319;48.920;2.332;2023-05-07T00:05:03;22.45;51.32
69206;SHT30;56319;48.920;2.332;2023-05-07T00:07:29;22.47;51.43
69206;SHT30;56319;48.920;2.332;2023-05-07T00:09:54;22.48;51.43
69206;SHT30;56319;48.920;2.332;2023-05-07T00:12:20;22.44;51.43
69206;SHT30;56319;48.920;2.332;2023-05-07T00:14:46;22.47;51.43
69206;SHT30;56319;48.920;2.332;2023-05-07T00:17:11;22.44;51.45
69206;SHT30;56319;48.920;2.332;2023-05-07T00:19:37;22.45;51.49
69206;SHT30;56319;48.920;2.332;2023-05-07T00:22:02;22.45;51.50
69206;SHT30;56319;48.920;2.332;2023-05-07T00:24:28;22.47;51.55
69206;SHT30;56319;48.920;2.332;2023-05-07T00:26:53;22.43;51.62
69206;SHT30;56319;48.920;2.332;2023-05-07T00:29:19;22.43;51.64
69206;SHT30;56319;48.920;2.332;2023-05-07T00:31:45;22.44;51.64
69206;SHT30;56319;48.920;2.332;2023-05-07T00:34:10;22.44;51.69
69206;SHT30;56319;48.920;2.332;2023-05-07T00:36:36;22.45;51.69
69206;SHT30;56319;48.920;2.332;2023-05-07T00:39:01;22.44;51.71
69206;SHT30;56319;48.920;2.332;2023-05-07T00:41:29;22.41;51.76
69206;SHT30;56319;48.920;2.332;2023-05-07T00:43:56;22.43;51.79
69206;SHT30;56319;48.920;2.332;2023-05-07T00:46:22;22.43;51.72
69206;SHT30;56319;48.920;2.332;2023-05-07T00:48:49;22.41;51.81
69206;SHT30;56319;48.920;2.332;2023-05-07T00:51:15;22.44;51.86
69206;SHT30;56319;48.920;2.332;2023-05-07T00:53:41;22.41;51.75
69206;SHT30;56319;48.920;2.332;2023-05-07T00:56:06;22.40;51.92
69206;SHT30;56319;48.920;2.332;2023-05-07T00:58:33;22.41;51.93
69206;SHT30;56319;48.920;2.332;2023-05-07T01:00:59;22.41;51.84
69206;SHT30;56319;48.920;2.332;2023-05-07T01:03:24;22.40;51.97
69206;SHT30;56319;48.920;2.332;2023-05-07T01:05:52;22.41;52.00
69206;SHT30;56319;48.920;2.332;2023-05-07T01:08:20;22.38;51.88
69206;SHT30;56319;48.920;2.332;2023-05-07T01:10:48;22.40;51.95
69206;SHT30;56319;48.920;2.332;2023-05-07T01:13:14;22.40;51.95
69206;SHT30;56319;48.920;2.332;2023-05-07T01:15:40;22.41;52.04
69206;SHT30;56319;48.920;2.332;2023-05-07T01:18:06;22.40;52.17
69206;SHT30;56319;48.920;2.332;2023-05-07T01:20:32;22.38;52.11
69206;SHT30;56319;48.920;2.332;2023-05-07T01:23:00;22.38;52.14
69206;SHT30;56319;48.920;2.332;2023-05-07T01:25:27;22.37;52.14
69206;SHT30;56319;48.920;2.332;2023-05-07T01:27:52;22.37;52.20
69206;SHT30;56319;48.920;2.332;2023-05-07T01:30:20;22.37;52.14
69206;SHT30;56319;48.920;2.332;2023-05-07T01:32:51;22.37;52.22
69206;SHT30;56319;48.920;2.332;2023-05-07T01:35:19;22.38;52.19
69206;SHT30;56319;48.920;2.332;2023-05-07T01:37:46;22.37;52.19
69206;SHT30;56319;48.920;2.332;2023-05-07T01:40:13;22.37;52.25
69206;SHT30;56319;48.920;2.332;2023-05-07T01:42:39;22.37;52.25
69206;SHT30;56319;48.920;2.332;2023-05-07T01:45:05;22.35;52.28
69206;SHT30;56319;48.920;2.332;2023-05-07T01:47:31;22.35;52.33
69206;SHT30;56319;48.920;2.332;2023-05-07T01:49:58;22.37;52.33
69206;SHT30;56319;48.920;2.332;2023-05-07T01:52:24;22.35;52.36
69206;SHT30;56319;48.920;2.332;2023-05-07T01:54:50;22.35;52.37
69206;SHT30;56319;48.920;2.332;2023-05-07T01:57:16;22.34;52.31
69206;SHT30;56319;48.920;2.332;2023-05-07T01:59:41;22.34;52.36
69206;SHT30;56319;48.920;2.332;2023-05-07T02:02:06;22.37;52.41
69206;SHT30;56319;48.920;2.332;2023-05-07T02:04:32;22.33;52.43
69206;SHT30;56319;48.920;2.332;2023-05-07T02:06:57;22.31;52.39
69206;SHT30;56319;48.920;2.332;2023-05-07T02:09:23;22.34;52.42
69206;SHT30;56319;48.920;2.332;2023-05-07T02:11:49;22.31;52.49
69206;SHT30;56319;48.920;2.332;2023-05-07T02:14:14;22.33;52.45
69206;SHT30;56319;48.920;2.332;2023-05-07T02:16:41;22.34;52.51
69206;SHT30;56319;48.920;2.332;2023-05-07T02:19:06;22.33;52.47
69206;SHT30;56319;48.920;2.332;2023-05-07T02:21:32;22.33;52.43
69206;SHT30;56319;48.920;2.332;2023-05-07T02:23:57;22.31;52.58
69206;SHT30;56319;48.920;2.332;2023-05-07T02:26:23;22.31;52.55
69206;SHT30;56319;48.920;2.332;2023-05-07T02:28:48;22.34;52.49
69206;SHT30;56319;48.920;2.332;2023-05-07T02:31:14;22.33;52.50
69206;SHT30;56319;48.920;2.332;2023-05-07T02:33:39;22.30;52.57
69206;SHT30;56319;48.920;2.332;2023-05-07T02:36:06;22.30;52.59
69206;SHT30;56319;48.920;2.332;2023-05-07T02:38:34;22.28;52.58
69206;SHT30;56319;48.920;2.332;2023-05-07T02:40:59;22.31;52.55
69206;SHT30;56319;48.920;2.332;2023-05-07T02:43:25;22.31;52.60
69206;SHT30;56319;48.920;2.332;2023-05-07T02:46:00;22.31;52.67
69206;SHT30;56319;48.920;2.332;2023-05-07T02:48:26;22.34;52.69
69206;SHT30;56319;48.920;2.332;2023-05-07T02:50:52;22.30;52.57
69206;SHT30;56319;48.920;2.332;2023-05-07T02:53:17;22.31;52.70
69206;SHT30;56319;48.920;2.332;2023-05-07T02:55:43;22.30;52.66
69206;SHT30;56319;48.920;2.332;2023-05-07T02:58:09;22.31;52.70
69206;SHT30;56319;48.920;2.332;2023-05-07T03:00:34;22.27;52.72
69206;SHT30;56319;48.920;2.332;2023-05-07T03:03:00;22.30;52.63
69206;SHT30;56319;48.920;2.332;2023-05-07T03:05:25;22.25;52.79
69206;SHT30;56319;48.920;2.332;2023-05-07T03:07:51;22.30;52.73
69206;SHT30;56319;48.920;2.332;2023-05-07T03:10:16;22.31;52.78
69206;SHT30;56319;48.920;2.332;2023-05-07T03:12:42;22.30;52.83
69206;SHT30;56319;48.920;2.332;2023-05-07T03:15:08;22.30;52.80
69206;SHT30;56319;48.920;2.332;2023-05-07T03:17:34;22.28;52.82
69206;SHT30;56319;48.920;2.332;2023-05-07T03:19:59;22.28;52.84
69206;SHT30;56319;48.920;2.332;2023-05-07T03:22:25;22.28;52.87
69206;SHT30;56319;48.920;2.332;2023-05-07T03:24:50;22.27;52.85
69206;SHT30;56319;48.920;2.332;2023-05-07T03:27:16;22.27;52.96
69206;SHT30;56319;48.920;2.332;2023-05-07T03:29:41;22.27;52.92
69206;SHT30;56319;48.920;2.332;2023-05-07T03:32:07;22.27;52.96
69206;SHT30;56319;48.920;2.332;2023-05-07T03:34:32;22.27;52.92
69206;SHT30;56319;48.920;2.332;2023-05-07T03:36:58;22.28;52.97
69206;SHT30;56319;48.920;2.332;2023-05-07T03:39:23;22.27;52.99
69206;SHT30;56319;48.920;2.332;2023-05-07T03:41:49;22.24;52.92
69206;SHT30;56319;48.920;2.332;2023-05-07T03:44:14;22.27;52.94
69206;SHT30;56319;48.920;2.332;2023-05-07T03:46:40;22.24;53.06
69206;SHT30;56319;48.920;2.332;2023-05-07T03:49:05;22.24;53.05
69206;SHT30;56319;48.920;2.332;2023-05-07T03:51:31;22.24;53.10
69206;SHT30;56319;48.920;2.332;2023-05-07T03:53:56;22.24;53.07
69206;SHT30;56319;48.920;2.332;2023-05-07T03:56:22;22.24;53.12
69206;SHT30;56319;48.920;2.332;2023-05-07T03:58:52;22.24;53.09
69206;SHT30;56319;48.920;2.332;2023-05-07T04:01:17;22.22;53.09
69206;SHT30;56319;48.920;2.332;2023-05-07T04:03:43;22.20;53.13
69206;SHT30;56319;48.920;2.332;2023-05-07T04:06:08;22.22;53.18
69206;SHT30;56319;48.920;2.332;2023-05-07T04:08:33;22.22;53.19
69206;SHT30;56319;48.920;2.332;2023-05-07T04:10:59;22.20;53.20
69206;SHT30;56319;48.920;2.332;2023-05-07T04:13:25;22.21;53.19
69206;SHT30;56319;48.920;2.332;2023-05-07T04:15:51;22.24;53.19
69206;SHT30;56319;48.920;2.332;2023-05-07T04:18:17;22.25;53.16
69206;SHT30;56319;48.920;2.332;2023-05-07T04:20:43;22.17;53.18
69206;SHT30;56319;48.920;2.332;2023-05-07T04:23:08;22.22;53.17
69206;SHT30;56319;48.920;2.332;2023-05-07T04:25:34;22.20;53.24
69206;SHT30;56319;48.920;2.332;2023-05-07T04:27:59;22.24;53.25
69206;SHT30;56319;48.920;2.332;2023-05-07T04:30:25;22.21;53.21
69206;SHT30;56319;48.920;2.332;2023-05-07T04:32:51;22.20;53.23
69206;SHT30;56319;48.920;2.332;2023-05-07T04:35:16;22.21;53.25
69206;SHT30;56319;48.920;2.332;2023-05-07T04:37:42;22.21;53.18
69206;SHT30;56319;48.920;2.332;2023-05-07T04:40:08;22.24;53.25
69206;SHT30;56319;48.920;2.332;2023-05-07T04:42:34;22.21;53.23
69206;SHT30;56319;48.920;2.332;2023-05-07T04:44:59;22.21;53.26
69206;SHT30;56319;48.920;2.332;2023-05-07T04:47:25;22.21;53.25
69206;SHT30;56319;48.920;2.332;2023-05-07T04:49:50;22.20;53.29
69206;SHT30;56319;48.920;2.332;2023-05-07T04:52:16;22.20;53.26
69206;SHT30;56319;48.920;2.332;2023-05-07T04:54:42;22.18;53.30
69206;SHT30;56319;48.920;2.332;2023-05-07T04:57:07;22.20;53.31
69206;SHT30;56319;48.920;2.332;2023-05-07T04:59:33;22.17;53.31
69206;SHT30;56319;48.920;2.332;2023-05-07T05:01:58;22.18;53.31
69206;SHT30;56319;48.920;2.332;2023-05-07T05:04:24;22.17;53.36
69206;SHT30;56319;48.920;2.332;2023-05-07T05:06:50;22.18;53.40
69206;SHT30;56319;48.920;2.332;2023-05-07T05:09:15;22.17;53.43
69206;SHT30;56319;48.920;2.332;2023-05-07T05:11:41;22.17;53.39
69206;SHT30;56319;48.920;2.332;2023-05-07T05:14:07;22.16;53.39
69206;SHT30;56319;48.920;2.332;2023-05-07T05:16:32;22.18;53.35
69206;SHT30;56319;48.920;2.332;2023-05-07T05:18:58;22.18;53.35
69206;SHT30;56319;48.920;2.332;2023-05-07T05:21:23;22.17;53.38
69206;SHT30;56319;48.920;2.332;2023-05-07T05:23:49;22.16;53.37
69206;SHT30;56319;48.920;2.332;2023-05-07T05:26:15;22.17;53.45
69206;SHT30;56319;48.920;2.332;2023-05-07T05:28:40;22.17;53.44
69206;SHT30;56319;48.920;2.332;2023-05-07T05:31:06;22.17;53.46
69206;SHT30;56319;48.920;2.332;2023-05-07T05:33:31;22.13;53.43
69206;SHT30;56319;48.920;2.332;2023-05-07T05:35:57;22.16;53.44
69206;SHT30;56319;48.920;2.332;2023-05-07T05:38:22;22.17;53.44
69206;SHT30;56319;48.920;2.332;2023-05-07T05:40:48;22.14;53.47
69206;SHT30;56319;48.920;2.332;2023-05-07T05:43:14;22.16;53.43
69206;SHT30;56319;48.920;2.332;2023-05-07T05:45:40;22.13;53.47
69206;SHT30;56319;48.920;2.332;2023-05-07T05:48:06;22.17;53.51
69206;SHT30;56319;48.920;2.332;2023-05-07T05:50:31;22.14;53.50
69206;SHT30;56319;48.920;2.332;2023-05-07T05:52:57;22.16;53.53
69206;SHT30;56319;48.920;2.332;2023-05-07T05:55:23;22.16;53.51
69206;SHT30;56319;48.920;2.332;2023-05-07T05:57:49;22.14;53.50
69206;SHT30;56319;48.920;2.332;2023-05-07T06:00:15;22.14;53.54
69206;SHT30;56319;48.920;2.332;2023-05-07T06:02:41;22.14;53.51
69206;SHT30;56319;48.920;2.332;2023-05-07T06:05:08;22.13;53.54
69206;SHT30;56319;48.920;2.332;2023-05-07T06:07:33;22.14;53.56
69206;SHT30;56319;48.920;2.332;2023-05-07T06:10:00;22.13;53.60
69206;SHT30;56319;48.920;2.332;2023-05-07T06:12:26;22.11;53.57
69206;SHT30;56319;48.920;2.332;2023-05-07T06:14:52;22.13;53.59
69206;SHT30;56319;48.920;2.332;2023-05-07T06:17:17;22.13;53.63
69206;SHT30;56319;48.920;2.332;2023-05-07T06:19:43;22.11;53.61
69206;SHT30;56319;48.920;2.332;2023-05-07T06:22:08;22.13;53.62
69206;SHT30;56319;48.920;2.332;2023-05-07T06:24:34;22.13;53.60
69206;SHT30;56319;48.920;2.332;2023-05-07T06:27:00;22.11;53.69
69206;SHT30;56319;48.920;2.332;2023-05-07T06:29:25;22.13;53.70
69206;SHT30;56319;48.920;2.332;2023-05-07T06:31:52;22.13;53.66
69206;SHT30;56319;48.920;2.332;2023-05-07T06:34:18;22.13;53.64
69206;SHT30;56319;48.920;2.332;2023-05-07T06:36:44;22.14;53.66
69206;SHT30;56319;48.920;2.332;2023-05-07T06:39:09;22.11;53.70
69206;SHT30;56319;48.920;2.332;2023-05-07T06:41:35;22.16;53.72
69206;SHT30;56319;48.920;2.332;2023-05-07T06:44:02;22.14;53.67
69206;SHT30;56319;48.920;2.332;2023-05-07T06:46:28;22.09;53.64
69206;SHT30;56319;48.920;2.332;2023-05-07T06:48:54;22.13;53.74
69206;SHT30;56319;48.920;2.332;2023-05-07T06:51:19;22.16;53.69
69206;SHT30;56319;48.920;2.332;2023-05-07T06:53:45;22.16;53.67
69206;SHT30;56319;48.920;2.332;2023-05-07T06:56:10;22.13;53.64
69206;SHT30;56319;48.920;2.332;2023-05-07T06:58:37;22.14;53.69
69206;SHT30;56319;48.920;2.332;2023-05-07T07:01:02;22.14;53.64
69206;SHT30;56319;48.920;2.332;2023-05-07T07:03:28;22.14;53.66
69206;SHT30;56319;48.920;2.332;2023-05-07T07:05:54;22.13;53.70
69206;SHT30;56319;48.920;2.332;2023-05-07T07:08:21;22.13;53.68
69206;SHT30;56319;48.920;2.332;2023-05-07T07:10:47;22.14;53.72
69206;SHT30;56319;48.920;2.332;2023-05-07T07:13:13;22.16;53.68
69206;SHT30;56319;48.920;2.332;2023-05-07T07:15:39;22.13;53.71
69206;SHT30;56319;48.920;2.332;2023-05-07T07:18:05;22.14;53.71
69206;SHT30;56319;48.920;2.332;2023-05-07T07:20:31;22.14;53.73
69206;SHT30;56319;48.920;2.332;2023-05-07T07:22:57;22.14;53.73
69206;SHT30;56319;48.920;2.332;2023-05-07T07:25:23;22.14;53.68
69206;SHT30;56319;48.920;2.332;2023-05-07T07:27:49;22.14;53.72
69206;SHT30;56319;48.920;2.332;2023-05-07T07:30:15;22.14;53.70
69206;SHT30;56319;48.920;2.332;2023-05-07T07:32:41;22.11;53.76
69206;SHT30;56319;48.920;2.332;2023-05-07T07:35:07;22.16;53.74
69206;SHT30;56319;48.920;2.332;2023-05-07T07:37:32;22.14;53.76
69206;SHT30;56319;48.920;2.332;2023-05-07T07:39:58;22.14;53.70
69206;SHT30;56319;48.920;2.332;2023-05-07T07:42:23;22.13;53.72
69206;SHT30;56319;48.920;2.332;2023-05-07T07:44:49;22.10;53.73
69206;SHT30;56319;48.920;2.332;2023-05-07T07:47:14;22.14;53.76
69206;SHT30;56319;48.920;2.332;2023-05-07T07:49:40;22.11;53.74
69206;SHT30;56319;48.920;2.332;2023-05-07T07:52:05;22.14;53.73
69206;SHT30;56319;48.920;2.332;2023-05-07T07:54:31;22.11;53.77
69206;SHT30;56319;48.920;2.332;2023-05-07T07:56:57;22.10;53.77
69206;SHT30;56319;48.920;2.332;2023-05-07T07:59:22;22.10;53.78
69206;SHT30;56319;48.920;2.332;2023-05-07T08:01:48;22.13;53.67
69206;SHT30;56319;48.920;2.332;2023-05-07T08:04:15;22.11;53.74
69206;SHT30;56319;48.920;2.332;2023-05-07T08:06:41;22.13;53.80
69206;SHT30;56319;48.920;2.332;2023-05-07T08:09:07;22.13;53.84
69206;SHT30;56319;48.920;2.332;2023-05-07T08:11:33;22.11;53.78
69206;SHT30;56319;48.920;2.332;2023-05-07T08:13:59;22.10;53.74
69206;SHT30;56319;48.920;2.332;2023-05-07T08:16:25;22.14;53.74
69206;SHT30;56319;48.920;2.332;2023-05-07T08:18:51;22.14;53.78
69206;SHT30;56319;48.920;2.332;2023-05-07T08:21:16;22.14;53.79
69206;SHT30;56319;48.920;2.332;2023-05-07T08:23:42;22.14;53.80
69206;SHT30;56319;48.920;2.332;2023-05-07T08:26:08;22.13;53.78
69206;SHT30;56319;48.920;2.332;2023-05-07T08:28:34;22.13;53.86
69206;SHT30;56319;48.920;2.332;2023-05-07T08:30:59;22.17;53.81
69206;SHT30;56319;48.920;2.332;2023-05-07T08:33:26;22.16;53.83
69206;SHT30;56319;48.920;2.332;2023-05-07T08:35:52;22.17;53.83
69206;SHT30;56319;48.920;2.332;2023-05-07T08:38:17;22.16;53.85
69206;SHT30;56319;48.920;2.332;2023-05-07T08:40:43;22.17;53.84
69206;SHT30;56319;48.920;2.332;2023-05-07T08:43:13;22.16;53.80
69206;SHT30;56319;48.920;2.332;2023-05-07T08:45:40;22.18;53.83
69206;SHT30;56319;48.920;2.332;2023-05-07T08:48:09;22.17;53.82
69206;SHT30;56319;48.920;2.332;2023-05-07T08:50:39;22.17;53.86
69206;SHT30;56319;48.920;2.332;2023-05-07T08:53:05;22.17;53.84
69206;SHT30;56319;48.920;2.332;2023-05-07T08:55:31;22.18;53.87
69206;SHT30;56319;48.920;2.332;2023-05-07T08:57:56;22.14;53.88
69206;SHT30;56319;48.920;2.332;2023-05-07T09:00:22;22.16;53.91
69206;SHT30;56319;48.920;2.332;2023-05-07T09:02:48;22.17;53.92
69206;SHT30;56319;48.920;2.332;2023-05-07T09:05:13;22.16;53.92
69206;SHT30;56319;48.920;2.332;2023-05-07T09:07:39;22.14;53.88
69206;SHT30;56319;48.920;2.332;2023-05-07T09:10:05;22.17;53.90
69206;SHT30;56319;48.920;2.332;2023-05-07T09:12:31;22.16;53.98
69206;SHT30;56319;48.920;2.332;2023-05-07T09:14:57;22.14;53.95
69206;SHT30;56319;48.920;2.332;2023-05-07T09:17:23;22.16;53.97
69206;SHT30;56319;48.920;2.332;2023-05-07T09:19:49;22.16;53.91
69206;SHT30;56319;48.920;2.332;2023-05-07T09:22:14;22.16;53.95
69206;SHT30;56319;48.920;2.332;2023-05-07T09:24:40;22.13;53.97
69206;SHT30;56319;48.920;2.332;2023-05-07T09:27:07;22.17;53.97
69206;SHT30;56319;48.920;2.332;2023-05-07T09:29:35;22.14;53.91
69206;SHT30;56319;48.920;2.332;2023-05-07T09:32:03;22.14;53.95
69206;SHT30;56319;48.920;2.332;2023-05-07T09:34:29;22.18;53.93
69206;SHT30;56319;48.920;2.332;2023-05-07T09:36:55;22.18;53.94
69206;SHT30;56319;48.920;2.332;2023-05-07T09:39:23;22.16;53.95
69206;SHT30;56319;48.920;2.332;2023-05-07T09:41:49;22.16;53.88
69206;SHT30;56319;48.920;2.332;2023-05-07T09:44:16;22.18;53.93
69206;SHT30;56319;48.920;2.332;2023-05-07T09:46:43;22.18;53.91
69206;SHT30;56319;48.920;2.332;2023-05-07T09:49:14;22.17;53.93
69206;SHT30;56319;48.920;2.332;2023-05-07T09:51:48;22.20;53.94
69206;SHT30;56319;48.920;2.332;2023-05-07T09:54:15;22.20;53.90
69206;SHT30;56319;48.920;2.332;2023-05-07T09:56:40;22.22;53.95
69206;SHT30;56319;48.920;2.332;2023-05-07T09:59:07;22.17;53.92
69206;SHT30;56319;48.920;2.332;2023-05-07T10:01:36;22.18;53.99
69206;SHT30;56319;48.920;2.332;2023-05-07T10:04:02;22.21;53.92
69206;SHT30;56319;48.920;2.332;2023-05-07T10:06:30;22.20;53.94
69206;SHT30;56319;48.920;2.332;2023-05-07T10:08:56;22.21;53.98
69206;SHT30;56319;48.920;2.332;2023-05-07T10:11:22;22.21;53.93
69206;SHT30;56319;48.920;2.332;2023-05-07T10:13:48;22.20;53.96
69206;SHT30;56319;48.920;2.332;2023-05-07T10:16:14;22.21;53.94
69206;SHT30;56319;48.920;2.332;2023-05-07T10:18:40;22.20;53.97
69206;SHT30;56319;48.920;2.332;2023-05-07T10:21:11;22.21;54.01
69206;SHT30;56319;48.920;2.332;2023-05-07T10:23:38;22.20;54.05
69206;SHT30;56319;48.920;2.332;2023-05-07T10:26:05;22.22;54.01
69206;SHT30;56319;48.920;2.332;2023-05-07T10:28:35;22.21;54.01
69206;SHT30;56319;48.920;2.332;2023-05-07T10:31:18;22.22;54.05
69206;SHT30;56319;48.920;2.332;2023-05-07T10:33:51;22.21;54.01
69206;SHT30;56319;48.920;2.332;2023-05-07T10:36:18;22.21;54.01
69206;SHT30;56319;48.920;2.332;2023-05-07T10:38:45;22.21;54.01
69206;SHT30;56319;48.920;2.332;2023-05-07T10:41:11;22.21;54.03
69206;SHT30;56319;48.920;2.332;2023-05-07T10:43:40;22.24;53.99
69206;SHT30;56319;48.920;2.332;2023-05-07T10:46:17;22.24;53.99
69206;SHT30;56319;48.920;2.332;2023-05-07T10:49:06;22.24;54.01
69206;SHT30;56319;48.920;2.332;2023-05-07T10:51:32;22.27;54.02
69206;SHT30;56319;48.920;2.332;2023-05-07T10:54:18;22.27;53.98
69206;SHT30;56319;48.920;2.332;2023-05-07T10:56:44;22.27;53.95
69206;SHT30;56319;48.920;2.332;2023-05-07T10:59:30;22.28;53.98
69206;SHT30;56319;48.920;2.332;2023-05-07T11:02:00;22.28;53.97
69206;SHT30;56319;48.920;2.332;2023-05-07T11:04:28;22.30;53.90
69206;SHT30;56319;48.920;2.332;2023-05-07T11:10:02;22.31;53.99
69206;SHT30;56319;48.920;2.332;2023-05-07T11:12:49;22.38;53.91
69206;SHT30;56319;48.920;2.332;2023-05-07T11:15:34;22.35;53.97
69206;SHT30;56319;48.920;2.332;2023-05-07T11:18:00;22.38;53.96
69206;SHT30;56319;48.920;2.332;2023-05-07T11:20:46;22.38;53.98
69206;SHT30;56319;48.920;2.332;2023-05-07T11:26:18;22.38;53.85
69206;SHT30;56319;48.920;2.332;2023-05-07T11:28:45;22.40;53.92
69206;SHT30;56319;48.920;2.332;2023-05-07T11:31:10;22.43;53.92
69206;SHT30;56319;48.920;2.332;2023-05-07T11:33:37;22.40;53.91
69206;SHT30;56319;48.920;2.332;2023-05-07T11:36:04;22.41;53.88
69206;SHT30;56319;48.920;2.332;2023-05-07T11:38:30;22.44;53.88
69206;SHT30;56319;48.920;2.332;2023-05-07T11:41:00;22.45;53.84
69206;SHT30;56319;48.920;2.332;2023-05-07T11:43:28;22.45;53.82
69206;SHT30;56319;48.920;2.332;2023-05-07T11:45:53;22.44;53.84
69206;SHT30;56319;48.920;2.332;2023-05-07T11:48:21;22.45;53.85
69206;SHT30;56319;48.920;2.332;2023-05-07T11:51:07;22.48;53.80
69206;SHT30;56319;48.920;2.332;2023-05-07T11:53:37;22.47;53.80
69206;SHT30;56319;48.920;2.332;2023-05-07T11:56:07;22.45;53.78
69206;SHT30;56319;48.920;2.332;2023-05-07T11:58:33;22.45;53.79
69206;SHT30;56319;48.920;2.332;2023-05-07T12:00:58;22.47;53.78
69206;SHT30;56319;48.920;2.332;2023-05-07T12:03:24;22.45;53.85
69206;SHT30;56319;48.920;2.332;2023-05-07T12:05:49;22.44;53.79
69206;SHT30;56319;48.920;2.332;2023-05-07T12:08:17;22.41;53.84
69206;SHT30;56319;48.920;2.332;2023-05-07T12:10:44;22.44;53.84
69206;SHT30;56319;48.920;2.332;2023-05-07T12:13:22;22.44;53.82
69206;SHT30;56319;48.920;2.332;2023-05-07T12:15:52;22.45;53.86
69206;SHT30;56319;48.920;2.332;2023-05-07T12:18:18;22.45;53.88
69206;SHT30;56319;48.920;2.332;2023-05-07T12:20:44;22.45;53.85
69206;SHT30;56319;48.920;2.332;2023-05-07T12:23:10;22.47;53.84
69206;SHT30;56319;48.920;2.332;2023-05-07T12:25:38;22.45;53.84
69206;SHT30;56319;48.920;2.332;2023-05-07T12:28:04;22.48;53.83
69206;SHT30;56319;48.920;2.332;2023-05-07T12:30:36;22.49;53.79
69206;SHT30;56319;48.920;2.332;2023-05-07T12:33:02;22.49;53.81
69206;SHT30;56319;48.920;2.332;2023-05-07T12:35:29;22.45;53.84
69206;SHT30;56319;48.920;2.332;2023-05-07T12:37:56;22.49;53.81
69206;SHT30;56319;48.920;2.332;2023-05-07T12:40:24;22.48;53.85
69206;SHT30;56319;48.920;2.332;2023-05-07T12:42:53;22.47;53.88
69206;SHT30;56319;48.920;2.332;2023-05-07T12:45:20;22.47;53.92
69206;SHT30;56319;48.920;2.332;2023-05-07T12:47:46;22.49;53.86
69206;SHT30;56319;48.920;2.332;2023-05-07T12:50:13;22.47;53.88
69206;SHT30;56319;48.920;2.332;2023-05-07T12:52:39;22.47;53.90
69206;SHT30;56319;48.920;2.332;2023-05-07T12:55:06;22.45;53.92
69206;SHT30;56319;48.920;2.332;2023-05-07T12:57:38;22.47;53.96
69206;SHT30;56319;48.920;2.332;2023-05-07T13:00:05;22.45;53.95
69206;SHT30;56319;48.920;2.332;2023-05-07T13:02:33;22.45;53.94
69206;SHT30;56319;48.920;2.332;2023-05-07T13:04:59;22.43;53.95
69206;SHT30;56319;48.920;2.332;2023-05-07T13:07:25;22.45;53.97
69206;SHT30;56319;48.920;2.332;2023-05-07T13:09:50;22.44;53.98
69206;SHT30;56319;48.920;2.332;2023-05-07T13:12:16;22.43;54.00
69206;SHT30;56319;48.920;2.332;2023-05-07T13:14:41;22.43;54.01
69206;SHT30;56319;48.920;2.332;2023-05-07T13:17:07;22.45;53.98
69206;SHT30;56319;48.920;2.332;2023-05-07T13:19:32;22.43;53.99
69206;SHT30;56319;48.920;2.332;2023-05-07T13:21:58;22.41;54.02
69206;SHT30;56319;48.920;2.332;2023-05-07T13:24:23;22.44;53.98
69206;SHT30;56319;48.920;2.332;2023-05-07T13:26:49;22.44;54.05
69206;SHT30;56319;48.920;2.332;2023-05-07T13:29:15;22.43;54.02
69206;SHT30;56319;48.920;2.332;2023-05-07T13:31:41;22.41;54.01
69206;SHT30;56319;48.920;2.332;2023-05-07T13:34:09;22.41;54.02
69206;SHT30;56319;48.920;2.332;2023-05-07T13:36:35;22.40;54.07
69206;SHT30;56319;48.920;2.332;2023-05-07T13:39:03;22.40;54.15
69206;SHT30;56319;48.920;2.332;2023-05-07T13:41:29;22.41;54.13
69206;SHT30;56319;48.920;2.332;2023-05-07T13:43:55;22.40;54.10
69206;SHT30;56319;48.920;2.332;2023-05-07T13:46:21;22.38;54.10
69206;SHT30;56319;48.920;2.332;2023-05-07T13:48:47;22.40;54.10
69206;SHT30;56319;48.920;2.332;2023-05-07T13:51:12;22.37;54.13
69206;SHT30;56319;48.920;2.332;2023-05-07T13:53:38;22.38;54.19
69206;SHT30;56319;48.920;2.332;2023-05-07T13:56:04;22.37;54.18
69206;SHT30;56319;48.920;2.332;2023-05-07T13:58:30;22.40;54.17
69206;SHT30;56319;48.920;2.332;2023-05-07T14:00:56;22.40;54.18
69206;SHT30;56319;48.920;2.332;2023-05-07T14:03:21;22.35;54.20
69206;SHT30;56319;48.920;2.332;2023-05-07T14:05:47;22.37;54.28
69206;SHT30;56319;48.920;2.332;2023-05-07T14:08:12;22.38;54.24
69206;SHT30;56319;48.920;2.332;2023-05-07T14:10:39;22.37;54.25
69206;SHT30;56319;48.920;2.332;2023-05-07T14:13:05;22.37;54.22
69206;SHT30;56319;48.920;2.332;2023-05-07T14:15:31;22.37;54.29
69206;SHT30;56319;48.920;2.332;2023-05-07T14:17:58;22.38;54.26
69206;SHT30;56319;48.920;2.332;2023-05-07T14:20:24;22.40;54.20
69206;SHT30;56319;48.920;2.332;2023-05-07T14:22:50;22.41;54.33
69206;SHT30;56319;48.920;2.332;2023-05-07T14:25:16;22.41;54.36
69206;SHT30;56319;48.920;2.332;2023-05-07T14:27:41;22.41;54.40
69206;SHT30;56319;48.920;2.332;2023-05-07T14:30:07;22.45;54.39
69206;SHT30;56319;48.920;2.332;2023-05-07T14:32:33;22.49;54.40
69206;SHT30;56319;48.920;2.332;2023-05-07T14:34:59;22.51;54.31
69206;SHT30;56319;48.920;2.332;2023-05-07T14:37:24;22.52;54.30
69206;SHT30;56319;48.920;2.332;2023-05-07T14:39:50;22.52;54.26
69206;SHT30;56319;48.920;2.332;2023-05-07T14:42:16;22.56;54.26
69206;SHT30;56319;48.920;2.332;2023-05-07T14:44:42;22.59;54.23
69206;SHT30;56319;48.920;2.332;2023-05-07T14:47:07;22.65;54.26
69206;SHT30;56319;48.920;2.332;2023-05-07T14:49:33;22.59;54.21
69206;SHT30;56319;48.920;2.332;2023-05-07T14:51:59;22.58;54.22
69206;SHT30;56319;48.920;2.332;2023-05-07T14:54:25;22.61;54.23
69206;SHT30;56319;48.920;2.332;2023-05-07T14:56:51;22.61;54.28
69206;SHT30;56319;48.920;2.332;2023-05-07T15:01:42;22.56;54.26
69206;SHT30;56319;48.920;2.332;2023-05-07T15:04:10;22.56;54.27
69206;SHT30;56319;48.920;2.332;2023-05-07T15:06:36;22.58;54.34
69206;SHT30;56319;48.920;2.332;2023-05-07T15:09:01;22.58;54.41
69206;SHT30;56319;48.920;2.332;2023-05-07T15:11:28;22.52;54.46
69206;SHT30;56319;48.920;2.332;2023-05-07T15:13:53;22.55;54.42
69206;SHT30;56319;48.920;2.332;2023-05-07T15:16:19;22.52;54.49
69206;SHT30;56319;48.920;2.332;2023-05-07T15:18:45;22.52;54.52
69206;SHT30;56319;48.920;2.332;2023-05-07T15:21:11;22.52;54.50
69206;SHT30;56319;48.920;2.332;2023-05-07T15:23:37;22.52;54.50
69206;SHT30;56319;48.920;2.332;2023-05-07T15:26:02;22.51;54.51
69206;SHT30;56319;48.920;2.332;2023-05-07T15:28:28;22.51;54.52
69206;SHT30;56319;48.920;2.332;2023-05-07T15:30:54;22.48;54.55
69206;SHT30;56319;48.920;2.332;2023-05-07T15:33:20;22.49;54.58